createdAt,value
2022-12-04T00:00:22.440Z,102680.30
2022-12-04T00:01:45.326Z,102676.72
2022-12-04T00:02:48.377Z,102677.90
2022-12-04T00:03:55.562Z,102677.73
2022-12-04T00:04:59.086Z,102677.27
2022-12-04T00:06:13.592Z,102678.24
2022-12-04T00:07:17.202Z,102675.80
2022-12-04T00:08:20.151Z,102675.52
2022-12-04T00:09:23.396Z,102674.67
2022-12-04T00:10:26.486Z,102672.78
2022-12-04T00:11:31.451Z,102673.77
2022-12-04T00:12:35.092Z,102674.72
2022-12-04T00:13:39.014Z,102671.01
2022-12-04T00:15:22.998Z,102668.23
2022-12-04T00:16:06.799Z,102666.30
2022-12-04T00:17:09.939Z,102665.77
2022-12-04T00:18:12.892Z,102673.23
2022-12-04T00:19:16.455Z,102674.27
2022-12-04T00:20:20.040Z,102678.11
2022-12-04T00:21:24.705Z,102681.34
2022-12-04T00:22:27.704Z,102679.00
2022-12-04T00:23:30.658Z,102678.90
2022-12-04T00:24:34.809Z,102676.58
2022-12-04T00:25:41.088Z,102680.74
2022-12-04T00:26:44.595Z,102679.77
2022-12-04T00:27:47.835Z,102684.03
2022-12-04T00:28:51.909Z,102680.77
2022-12-04T00:29:55.123Z,102682.77
2022-12-04T00:30:58.221Z,102683.66
2022-12-04T00:32:01.245Z,102683.04
2022-12-04T00:33:04.439Z,102683.93
2022-12-04T00:34:08.390Z,102685.14
2022-12-04T00:35:11.438Z,102682.34
2022-12-04T00:36:17.353Z,102678.30
2022-12-04T00:37:20.555Z,102678.20
2022-12-04T00:38:23.684Z,102679.83
2022-12-04T00:39:26.620Z,102681.08
2022-12-04T00:40:29.584Z,102682.77
2022-12-04T00:41:33.412Z,102682.91
2022-12-04T00:42:36.635Z,102682.48
2022-12-04T00:43:40.298Z,102681.88
2022-12-04T00:44:43.396Z,102683.23
2022-12-04T00:45:46.408Z,102680.23
2022-12-04T00:46:49.331Z,102680.08
2022-12-04T00:47:52.331Z,102679.45
2022-12-04T00:48:56.184Z,102677.99
2022-12-04T00:49:59.176Z,102678.37
2022-12-04T00:51:05.548Z,102677.08
2022-12-04T00:52:08.513Z,102675.38
2022-12-04T00:53:12.725Z,102678.20
2022-12-04T00:54:15.919Z,102673.27
2022-12-04T00:55:18.996Z,102669.83
2022-12-04T00:56:25.818Z,102672.14
2022-12-04T00:57:29.782Z,102666.94
2022-12-04T00:58:32.984Z,102668.77
2022-12-04T00:59:37.980Z,102666.14
2022-12-04T01:00:42.621Z,102665.06
2022-12-04T01:01:45.736Z,102659.89
2022-12-04T01:02:48.858Z,102661.35
2022-12-04T01:03:52.626Z,102657.55
2022-12-04T01:04:55.832Z,102658.77
2022-12-04T01:05:58.897Z,102658.90
2022-12-04T01:07:05.170Z,102658.58
2022-12-04T01:08:09.690Z,102654.38
2022-12-04T01:09:12.927Z,102655.33
2022-12-04T01:10:16.136Z,102655.60
2022-12-04T01:11:20.596Z,102653.74
2022-12-04T01:12:23.583Z,102652.27
2022-12-04T01:13:27.149Z,102657.29
2022-12-04T01:14:30.262Z,102652.47
2022-12-04T01:15:33.513Z,102648.91
2022-12-04T01:16:39.368Z,102650.09
2022-12-04T01:17:42.481Z,102655.27
2022-12-04T01:18:46.251Z,102655.69
2022-12-04T01:19:50.125Z,102656.98
2022-12-04T01:20:53.278Z,102655.02
2022-12-04T01:21:56.224Z,102659.16
2022-12-04T01:22:59.168Z,102659.20
2022-12-04T01:24:02.374Z,102663.02
2022-12-04T01:25:05.768Z,102661.52
2022-12-04T01:26:08.888Z,102663.47
2022-12-04T01:27:11.811Z,102659.83
2022-12-04T01:28:14.700Z,102660.34
2022-12-04T01:29:17.702Z,102659.27
2022-12-04T01:30:20.709Z,102662.97
2022-12-04T01:31:24.147Z,102667.91
2022-12-04T01:32:27.183Z,102664.33
2022-12-04T01:33:31.890Z,102660.22
2022-12-04T01:34:36.074Z,102656.43
2022-12-04T01:35:39.358Z,102657.88
2022-12-04T01:36:42.691Z,102657.11
2022-12-04T01:37:45.633Z,102660.46
2022-12-04T01:38:48.989Z,102663.20
2022-12-04T01:39:52.122Z,102666.34
2022-12-04T01:40:55.971Z,102662.17
2022-12-04T01:41:59.115Z,102663.34
2022-12-04T01:43:02.062Z,102664.73
2022-12-04T01:44:08.974Z,102660.89
2022-12-04T01:45:42.157Z,102661.08
2022-12-04T01:46:47.988Z,102655.30
2022-12-04T01:47:56.026Z,102653.48
2022-12-04T01:48:59.264Z,102660.52
2022-12-04T01:50:02.445Z,102665.45
2022-12-04T01:51:30.788Z,102664.40
2022-12-04T01:52:33.900Z,102662.05
2022-12-04T01:53:42.608Z,102656.41
2022-12-04T01:54:49.837Z,102658.23
2022-12-04T01:55:53.304Z,102659.66
2022-12-04T01:57:17.783Z,102659.70
2022-12-04T01:58:26.428Z,102658.27
2022-12-04T01:59:34.757Z,102659.33
2022-12-04T02:00:38.091Z,102660.23
2022-12-04T02:01:52.367Z,102657.34
2022-12-04T02:02:55.647Z,102653.30
2022-12-04T02:04:00.802Z,102653.27
2022-12-04T02:05:06.692Z,102641.73
2022-12-04T02:06:09.783Z,102642.39
2022-12-04T02:07:12.909Z,102641.45
2022-12-04T02:08:16.223Z,102637.89
2022-12-04T02:09:26.182Z,102638.10
2022-12-04T02:10:42.252Z,102631.06
2022-12-04T02:12:32.917Z,102633.90
2022-12-04T02:13:47.609Z,102636.22
2022-12-04T02:15:21.716Z,102634.51
2022-12-04T02:16:27.387Z,102635.13
2022-12-04T02:17:38.877Z,102635.20
2022-12-04T02:19:07.864Z,102635.48
2022-12-04T02:20:29.052Z,102633.27
2022-12-04T02:21:37.410Z,102630.60
2022-12-04T02:23:08.298Z,102632.20
2022-12-04T02:24:30.146Z,102629.90
2022-12-04T02:25:44.248Z,102629.71
2022-12-04T02:26:53.904Z,102630.73
2022-12-04T02:27:59.936Z,102627.17
2022-12-04T02:29:26.792Z,102628.86
2022-12-04T02:32:10.997Z,102632.73
2022-12-04T02:33:19.450Z,102633.14
2022-12-04T02:34:28.987Z,102633.20
2022-12-04T02:35:41.223Z,102635.80
2022-12-04T02:36:52.771Z,102635.94
2022-12-04T02:38:34.451Z,102633.64
2022-12-04T02:39:46.811Z,102631.66
2022-12-04T02:41:03.239Z,102636.23
2022-12-04T02:42:35.608Z,102634.81
2022-12-04T02:43:50.924Z,102633.25
2022-12-04T02:44:59.172Z,102633.27
2022-12-04T02:46:23.946Z,102630.65
2022-12-04T02:47:28.081Z,102630.63
2022-12-04T02:48:34.245Z,102628.02
2022-12-04T02:49:49.763Z,102628.98
2022-12-04T02:50:57.694Z,102631.64
2022-12-04T02:52:03.320Z,102629.30
2022-12-04T02:53:12.489Z,102629.23
2022-12-04T02:54:35.878Z,102629.76
2022-12-04T02:55:53.773Z,102634.02
2022-12-04T02:57:00.108Z,102633.29
2022-12-04T02:58:09.514Z,102633.05
2022-12-04T02:59:20.931Z,102634.38
2022-12-04T03:00:24.252Z,102635.86
2022-12-04T03:01:32.579Z,102635.67
2022-12-04T03:02:47.258Z,102632.30
2022-12-04T03:03:53.933Z,102632.27
2022-12-04T03:05:00.934Z,102627.24
2022-12-04T03:06:11.659Z,102626.17
2022-12-04T03:07:19.672Z,102623.42
2022-12-04T03:08:29.258Z,102620.20
2022-12-04T03:09:58.313Z,102621.23
2022-12-04T03:11:02.162Z,102622.77
2022-12-04T03:12:20.607Z,102622.98
2022-12-04T03:13:30.140Z,102616.21
2022-12-04T03:14:37.845Z,102615.40
2022-12-04T03:15:45.256Z,102612.90
2022-12-04T03:16:51.317Z,102615.18
2022-12-04T03:18:10.241Z,102617.39
2022-12-04T03:19:24.722Z,102620.14
2022-12-04T03:20:32.188Z,102615.74
2022-12-04T03:21:38.419Z,102619.55
2022-12-04T03:22:45.071Z,102616.31
2022-12-04T03:23:55.177Z,102618.58
2022-12-04T03:24:58.637Z,102618.41
2022-12-04T03:26:10.555Z,102620.70
2022-12-04T03:27:19.055Z,102618.50
2022-12-04T03:28:33.262Z,102615.91
2022-12-04T03:29:44.167Z,102618.29
2022-12-04T03:30:56.569Z,102617.31
2022-12-04T03:32:29.860Z,102619.25
2022-12-04T03:33:44.401Z,102618.15
2022-12-04T03:34:53.342Z,102621.93
2022-12-04T03:36:03.453Z,102622.95
2022-12-04T03:37:15.555Z,102625.86
2022-12-04T03:38:41.096Z,102624.98
2022-12-04T03:40:07.989Z,102620.74
2022-12-04T03:41:25.688Z,102624.34
2022-12-04T03:43:02.842Z,102620.86
2022-12-04T03:44:08.497Z,102620.02
2022-12-04T03:45:14.414Z,102615.23
2022-12-04T03:46:47.415Z,102615.21
2022-12-04T03:48:06.735Z,102611.21
2022-12-04T03:49:21.576Z,102609.58
2022-12-04T03:50:38.866Z,102610.85
2022-12-04T03:51:52.278Z,102608.87
2022-12-04T03:53:04.744Z,102607.85
2022-12-04T03:54:21.360Z,102604.08
2022-12-04T03:55:39.242Z,102602.55
2022-12-04T03:56:48.835Z,102592.13
2022-12-04T03:57:56.672Z,102595.89
2022-12-04T03:59:07.338Z,102595.58
2022-12-04T04:00:16.734Z,102602.70
2022-12-04T04:01:25.315Z,102600.46
2022-12-04T04:02:45.257Z,102602.36
2022-12-04T04:03:52.008Z,102607.42
2022-12-04T04:04:58.935Z,102607.39
2022-12-04T04:06:07.604Z,102607.50
2022-12-04T04:07:34.841Z,102606.31
2022-12-04T04:08:43.378Z,102605.42
2022-12-04T04:09:50.789Z,102606.14
2022-12-04T04:11:02.980Z,102607.95
2022-12-04T04:12:15.576Z,102605.36
2022-12-04T04:13:41.727Z,102611.15
2022-12-04T04:15:12.376Z,102610.43
2022-12-04T04:16:38.447Z,102608.95
2022-12-04T04:17:48.428Z,102609.27
2022-12-04T04:19:12.394Z,102613.67
2022-12-04T04:20:56.427Z,102614.40
2022-12-04T04:22:21.735Z,102611.43
2022-12-04T04:23:48.571Z,102613.65
2022-12-04T04:25:09.935Z,102613.02
2022-12-04T04:26:14.196Z,102612.89
2022-12-04T04:27:17.379Z,102615.83
2022-12-04T04:28:46.752Z,102616.22
2022-12-04T04:29:52.693Z,102614.99
2022-12-04T04:31:05.447Z,102613.20
2022-12-04T04:32:25.766Z,102615.70
2022-12-04T04:33:30.526Z,102612.73
2022-12-04T04:34:36.499Z,102613.92
2022-12-04T04:35:55.255Z,102614.90
2022-12-04T04:37:35.975Z,102614.40
2022-12-04T04:38:51.188Z,102614.13
2022-12-04T04:40:06.495Z,102614.13
2022-12-04T04:41:24.433Z,102609.69
2022-12-04T04:42:36.548Z,102606.47
2022-12-04T04:43:59.529Z,102606.89
2022-12-04T04:45:09.252Z,102602.98
2022-12-04T04:46:18.819Z,102601.26
2022-12-04T04:47:34.467Z,102597.20
2022-12-04T04:48:51.164Z,102596.01
2022-12-04T04:49:57.365Z,102592.86
2022-12-04T04:51:03.007Z,102595.43
2022-12-04T04:52:06.564Z,102593.13
2022-12-04T04:53:19.030Z,102597.16
2022-12-04T04:54:22.982Z,102595.14
2022-12-04T04:55:26.693Z,102597.33
2022-12-04T04:56:30.619Z,102598.77
2022-12-04T04:57:36.653Z,102596.31
2022-12-04T04:58:39.717Z,102595.73
2022-12-04T04:59:42.769Z,102594.06
2022-12-04T05:00:59.438Z,102595.73
2022-12-04T05:02:02.681Z,102594.74
2022-12-04T05:03:06.676Z,102592.67
2022-12-04T05:04:10.898Z,102590.39
2022-12-04T05:05:14.085Z,102589.40
2022-12-04T05:06:17.107Z,102593.37
2022-12-04T05:07:20.077Z,102593.50
2022-12-04T05:08:23.747Z,102597.86
2022-12-04T05:09:26.970Z,102598.90
2022-12-04T05:10:29.898Z,102598.64
2022-12-04T05:11:33.043Z,102600.29
2022-12-04T05:12:36.548Z,102604.05
2022-12-04T05:13:39.873Z,102603.33
2022-12-04T05:14:42.784Z,102602.29
2022-12-04T05:15:55.245Z,102602.66
2022-12-04T05:17:01.832Z,102599.13
2022-12-04T05:18:05.535Z,102597.47
2022-12-04T05:19:27.385Z,102601.16
2022-12-04T05:20:30.348Z,102600.52
2022-12-04T05:21:34.496Z,102598.42
2022-12-04T05:22:37.474Z,102599.50
2022-12-04T05:23:40.676Z,102598.08
2022-12-04T05:24:43.642Z,102594.34
2022-12-04T05:25:46.778Z,102595.04
2022-12-04T05:26:49.845Z,102594.10
2022-12-04T05:27:52.762Z,102590.64
2022-12-04T05:28:55.880Z,102592.70
2022-12-04T05:30:00.809Z,102590.95
2022-12-04T05:31:04.414Z,102596.63
2022-12-04T05:32:07.414Z,102594.73
2022-12-04T05:33:10.706Z,102597.30
2022-12-04T05:34:13.864Z,102592.86
2022-12-04T05:35:17.299Z,102596.23
2022-12-04T05:36:20.230Z,102595.39
2022-12-04T05:37:24.683Z,102595.87
2022-12-04T05:38:27.935Z,102599.45
2022-12-04T05:39:31.039Z,102597.41
2022-12-04T05:40:33.923Z,102595.48
2022-12-04T05:41:36.834Z,102595.89
2022-12-04T05:42:40.063Z,102593.35
2022-12-04T05:43:43.070Z,102595.19
2022-12-04T05:44:46.215Z,102597.73
2022-12-04T05:45:49.255Z,102600.79
2022-12-04T05:46:52.254Z,102599.17
2022-12-04T05:47:55.312Z,102600.79
2022-12-04T05:48:58.297Z,102598.77
2022-12-04T05:50:01.403Z,102601.89
2022-12-04T05:51:08.454Z,102604.38
2022-12-04T05:52:11.437Z,102600.95
2022-12-04T05:53:14.427Z,102600.30
2022-12-04T05:54:19.075Z,102602.29
2022-12-04T05:55:22.317Z,102601.70
2022-12-04T05:56:25.226Z,102605.91
2022-12-04T05:57:30.021Z,102601.73
2022-12-04T05:58:38.262Z,102602.02
2022-12-04T05:59:41.308Z,102597.48
2022-12-04T06:00:44.474Z,102596.67
2022-12-04T06:01:47.576Z,102598.69
2022-12-04T06:02:50.921Z,102594.85
2022-12-04T06:03:54.173Z,102597.05
2022-12-04T06:04:57.079Z,102603.70
2022-12-04T06:06:00.111Z,102599.89
2022-12-04T06:07:03.058Z,102598.27
2022-12-04T06:08:06.061Z,102601.52
2022-12-04T06:09:09.449Z,102604.14
2022-12-04T06:10:12.390Z,102602.55
2022-12-04T06:11:22.388Z,102602.08
2022-12-04T06:12:25.291Z,102599.51
2022-12-04T06:13:28.181Z,102599.62
2022-12-04T06:14:36.313Z,102595.48
2022-12-04T06:15:42.609Z,102599.31
2022-12-04T06:16:46.450Z,102599.92
2022-12-04T06:17:49.571Z,102601.05
2022-12-04T06:18:56.761Z,102595.89
2022-12-04T06:20:00.385Z,102596.63
2022-12-04T06:21:03.648Z,102600.19
2022-12-04T06:22:06.758Z,102599.71
2022-12-04T06:23:09.719Z,102600.09
2022-12-04T06:24:15.719Z,102600.85
2022-12-04T06:25:18.737Z,102596.52
2022-12-04T06:26:22.679Z,102602.73
2022-12-04T06:27:27.772Z,102599.02
2022-12-04T06:28:32.018Z,102592.84
2022-12-04T06:29:34.986Z,102588.60
2022-12-04T06:30:37.866Z,102588.15
2022-12-04T06:31:41.997Z,102586.73
2022-12-04T06:32:45.226Z,102585.12
2022-12-04T06:33:48.462Z,102590.82
2022-12-04T06:34:53.118Z,102597.91
2022-12-04T06:36:18.527Z,102594.89
2022-12-04T06:37:24.269Z,102590.57
2022-12-04T06:38:28.031Z,102589.45
2022-12-04T06:39:31.148Z,102599.86
2022-12-04T06:40:34.157Z,102606.21
2022-12-04T06:41:37.272Z,102609.39
2022-12-04T06:42:40.327Z,102615.15
2022-12-04T06:43:43.837Z,102615.48
2022-12-04T06:44:46.771Z,102615.85
2022-12-04T06:45:58.852Z,102619.27
2022-12-04T06:47:01.974Z,102620.83
2022-12-04T06:48:05.035Z,102623.19
2022-12-04T06:49:10.156Z,102620.98
2022-12-04T06:50:13.661Z,102626.21
2022-12-04T06:51:19.489Z,102628.98
2022-12-04T06:52:22.712Z,102627.84
2022-12-04T06:53:27.800Z,102627.17
2022-12-04T06:54:30.831Z,102627.42
2022-12-04T06:55:33.758Z,102626.59
2022-12-04T06:56:36.769Z,102626.09
2022-12-04T06:57:39.817Z,102627.44
2022-12-04T06:58:42.711Z,102628.17
2022-12-04T06:59:45.909Z,102628.11
2022-12-04T07:00:49.007Z,102627.61
2022-12-04T07:01:52.060Z,102628.27
2022-12-04T07:02:55.204Z,102624.63
2022-12-04T07:03:59.312Z,102624.86
2022-12-04T07:05:02.446Z,102624.31
2022-12-04T07:06:16.436Z,102621.13
2022-12-04T07:07:19.387Z,102619.48
2022-12-04T07:08:22.335Z,102619.14
2022-12-04T07:09:25.252Z,102616.21
2022-12-04T07:10:28.347Z,102618.27
2022-12-04T07:11:32.091Z,102616.12
2022-12-04T07:12:34.979Z,102617.35
2022-12-04T07:13:38.192Z,102622.50
2022-12-04T07:14:41.238Z,102620.14
2022-12-04T07:15:44.247Z,102620.86
2022-12-04T07:16:47.247Z,102616.25
2022-12-04T07:17:50.257Z,102613.15
2022-12-04T07:18:54.014Z,102612.81
2022-12-04T07:19:57.394Z,102611.37
2022-12-04T07:21:04.272Z,102609.20
2022-12-04T07:22:09.036Z,102607.63
2022-12-04T07:23:12.031Z,102608.39
2022-12-04T07:24:18.112Z,102606.35
2022-12-04T07:25:21.092Z,102606.04
2022-12-04T07:26:25.667Z,102605.70
2022-12-04T07:27:30.910Z,102603.38
2022-12-04T07:28:34.941Z,102603.80
2022-12-04T07:29:38.067Z,102604.88
2022-12-04T07:30:41.014Z,102603.09
2022-12-04T07:31:44.633Z,102602.83
2022-12-04T07:32:47.829Z,102601.30
2022-12-04T07:33:51.322Z,102604.56
2022-12-04T07:34:54.198Z,102603.15
2022-12-04T07:35:58.816Z,102604.86
2022-12-04T07:37:02.020Z,102606.98
2022-12-04T07:38:05.171Z,102608.08
2022-12-04T07:39:08.339Z,102613.10
2022-12-04T07:40:12.209Z,102611.33
2022-12-04T07:41:16.559Z,102611.52
2022-12-04T07:42:24.082Z,102613.17
2022-12-04T07:43:29.560Z,102615.63
2022-12-04T07:44:32.740Z,102613.27
2022-12-04T07:45:37.067Z,102611.92
2022-12-04T07:46:40.058Z,102611.73
2022-12-04T07:47:43.595Z,102608.60
2022-12-04T07:48:46.646Z,102611.02
2022-12-04T07:49:49.705Z,102611.81
2022-12-04T07:51:05.815Z,102607.48
2022-12-04T07:52:08.819Z,102609.76
2022-12-04T07:53:12.437Z,102604.42
2022-12-04T07:54:15.819Z,102603.94
2022-12-04T07:55:23.117Z,102605.48
2022-12-04T07:56:26.678Z,102607.74
2022-12-04T07:57:29.686Z,102611.52
2022-12-04T07:58:33.861Z,102608.89
2022-12-04T07:59:36.890Z,102611.97
2022-12-04T08:00:39.925Z,102612.95
2022-12-04T08:01:43.020Z,102613.73
2022-12-04T08:02:46.014Z,102611.77
2022-12-04T08:03:51.462Z,102611.70
2022-12-04T08:04:54.537Z,102612.09
2022-12-04T08:06:01.307Z,102613.00
2022-12-04T08:07:04.295Z,102611.42
2022-12-04T08:08:07.331Z,102608.97
2022-12-04T08:09:10.600Z,102609.58
2022-12-04T08:10:14.650Z,102604.45
2022-12-04T08:11:22.211Z,102604.58
2022-12-04T08:12:25.387Z,102604.52
2022-12-04T08:13:28.679Z,102601.88
2022-12-04T08:14:31.700Z,102600.38
2022-12-04T08:15:35.484Z,102599.85
2022-12-04T08:16:38.712Z,102601.68
2022-12-04T08:17:41.744Z,102603.07
2022-12-04T08:18:48.495Z,102599.70
2022-12-04T08:19:51.797Z,102602.11
2022-12-04T08:20:54.831Z,102602.31
2022-12-04T08:21:57.865Z,102601.60
2022-12-04T08:23:00.911Z,102602.34
2022-12-04T08:24:03.997Z,102600.08
2022-12-04T08:25:07.445Z,102599.15
2022-12-04T08:26:11.813Z,102597.11
2022-12-04T08:27:14.827Z,102598.95
2022-12-04T08:28:18.693Z,102595.91
2022-12-04T08:29:21.663Z,102598.96
2022-12-04T08:30:24.785Z,102597.35
2022-12-04T08:31:30.086Z,102594.60
2022-12-04T08:32:33.901Z,102599.34
2022-12-04T08:33:37.074Z,102602.30
2022-12-04T08:34:39.994Z,102602.27
2022-12-04T08:35:43.046Z,102601.70
2022-12-04T08:36:46.019Z,102604.90
2022-12-04T08:37:49.104Z,102604.09
2022-12-04T08:38:52.532Z,102605.05
2022-12-04T08:39:55.617Z,102601.48
2022-12-04T08:41:03.653Z,102605.09
2022-12-04T08:42:06.691Z,102607.33
2022-12-04T08:43:09.654Z,102607.38
2022-12-04T08:44:12.640Z,102605.45
2022-12-04T08:45:15.697Z,102608.58
2022-12-04T08:46:18.997Z,102609.98
2022-12-04T08:47:22.169Z,102617.77
2022-12-04T08:48:25.192Z,102616.46
2022-12-04T08:49:28.169Z,102614.98
2022-12-04T08:50:31.202Z,102610.42
2022-12-04T08:51:35.608Z,102608.18
2022-12-04T08:52:38.632Z,102611.29
2022-12-04T08:53:41.937Z,102611.86
2022-12-04T08:54:44.892Z,102610.04
2022-12-04T08:55:48.454Z,102606.56
2022-12-04T08:56:51.435Z,102607.54
2022-12-04T08:57:54.827Z,102602.45
2022-12-04T08:58:58.647Z,102601.08
2022-12-04T09:00:01.910Z,102599.54
2022-12-04T09:01:10.321Z,102605.21
2022-12-04T09:02:13.417Z,102605.31
2022-12-04T09:03:18.997Z,102608.52
2022-12-04T09:04:22.065Z,102610.40
2022-12-04T09:05:25.184Z,102607.36
2022-12-04T09:06:28.105Z,102604.80
2022-12-04T09:07:31.264Z,102606.08
2022-12-04T09:08:35.535Z,102603.92
2022-12-04T09:09:41.269Z,102606.73
2022-12-04T09:10:47.948Z,102607.90
2022-12-04T09:11:50.934Z,102610.54
2022-12-04T09:12:53.992Z,102609.30
2022-12-04T09:13:56.996Z,102609.04
2022-12-04T09:14:59.991Z,102608.63
2022-12-04T09:16:05.183Z,102609.09
2022-12-04T09:17:08.334Z,102611.44
2022-12-04T09:18:11.495Z,102609.28
2022-12-04T09:19:14.413Z,102607.89
2022-12-04T09:20:17.430Z,102605.25
2022-12-04T09:21:22.153Z,102605.83
2022-12-04T09:22:25.123Z,102609.54
2022-12-04T09:23:28.668Z,102607.02
2022-12-04T09:24:32.096Z,102609.08
2022-12-04T09:25:36.663Z,102612.36
2022-12-04T09:26:39.996Z,102610.50
2022-12-04T09:27:43.552Z,102606.98
2022-12-04T09:28:46.799Z,102607.39
2022-12-04T09:29:49.762Z,102604.64
2022-12-04T09:31:04.690Z,102607.16
2022-12-04T09:32:07.700Z,102602.45
2022-12-04T09:33:10.949Z,102604.13
2022-12-04T09:34:14.235Z,102604.75
2022-12-04T09:35:17.246Z,102605.09
2022-12-04T09:36:20.833Z,102599.14
2022-12-04T09:37:23.881Z,102596.77
2022-12-04T09:38:27.973Z,102596.18
2022-12-04T09:39:31.064Z,102592.02
2022-12-04T09:40:42.926Z,102594.45
2022-12-04T09:42:03.523Z,102591.39
2022-12-04T09:43:15.933Z,102588.38
2022-12-04T09:44:27.734Z,102588.27
2022-12-04T09:45:43.190Z,102586.30
2022-12-04T09:46:51.159Z,102582.60
2022-12-04T09:47:58.291Z,102585.02
2022-12-04T09:49:14.538Z,102589.89
2022-12-04T09:50:34.594Z,102589.61
2022-12-04T09:51:40.510Z,102588.11
2022-12-04T09:52:58.316Z,102589.59
2022-12-04T09:54:07.945Z,102589.47
2022-12-04T09:55:18.018Z,102589.15
2022-12-04T09:56:24.855Z,102590.15
2022-12-04T09:57:49.320Z,102591.98
2022-12-04T09:58:58.288Z,102588.52
2022-12-04T10:00:04.489Z,102587.92
2022-12-04T10:01:23.142Z,102583.95
2022-12-04T10:02:35.365Z,102585.23
2022-12-04T10:03:39.980Z,102582.15
2022-12-04T10:04:43.038Z,102579.83
2022-12-04T10:05:53.788Z,102580.81
2022-12-04T10:07:12.126Z,102584.56
2022-12-04T10:08:23.073Z,102581.61
2022-12-04T10:09:46.800Z,102576.86
2022-12-04T10:11:03.584Z,102579.08
2022-12-04T10:12:48.020Z,102578.54
2022-12-04T10:13:57.523Z,102578.88
2022-12-04T10:15:26.902Z,102578.02
2022-12-04T10:16:38.847Z,102573.52
2022-12-04T10:17:54.662Z,102572.13
2022-12-04T10:19:12.952Z,102576.15
2022-12-04T10:20:45.720Z,102573.42
2022-12-04T10:22:05.795Z,102571.77
2022-12-04T10:23:30.616Z,102571.37
2022-12-04T10:24:46.634Z,102573.80
2022-12-04T10:25:51.915Z,102576.46
2022-12-04T10:26:57.783Z,102571.96
2022-12-04T10:28:17.789Z,102574.75
2022-12-04T10:29:24.324Z,102573.66
2022-12-04T10:30:31.202Z,102573.64
2022-12-04T10:31:37.677Z,102574.84
2022-12-04T10:32:45.042Z,102569.98
2022-12-04T10:33:53.639Z,102567.73
2022-12-04T10:35:03.227Z,102571.55
2022-12-04T10:36:10.258Z,102570.17
2022-12-04T10:37:15.324Z,102569.35
2022-12-04T10:38:40.079Z,102569.44
2022-12-04T10:39:51.083Z,102566.56
2022-12-04T10:41:10.105Z,102568.41
2022-12-04T10:42:36.222Z,102566.66
2022-12-04T10:43:46.931Z,102568.05
2022-12-04T10:44:49.987Z,102568.04
2022-12-04T10:45:53.090Z,102568.63
2022-12-04T10:47:03.354Z,102568.70
2022-12-04T10:48:08.153Z,102569.36
2022-12-04T10:49:19.260Z,102565.31
2022-12-04T10:50:24.471Z,102568.47
2022-12-04T10:51:35.547Z,102566.56
2022-12-04T10:52:38.548Z,102568.76
2022-12-04T10:53:42.559Z,102566.71
2022-12-04T10:55:06.166Z,102565.38
2022-12-04T10:56:14.843Z,102565.98
2022-12-04T10:57:18.139Z,102563.47
2022-12-04T10:58:21.161Z,102565.16
2022-12-04T10:59:25.371Z,102563.34
2022-12-04T11:00:34.360Z,102561.99
2022-12-04T11:01:37.827Z,102563.00
2022-12-04T11:02:41.636Z,102559.34
2022-12-04T11:03:47.141Z,102558.23
2022-12-04T11:04:58.874Z,102555.36
2022-12-04T11:06:05.500Z,102553.42
2022-12-04T11:07:19.412Z,102552.97
2022-12-04T11:08:50.075Z,102554.77
2022-12-04T11:10:04.224Z,102551.52
2022-12-04T11:11:14.391Z,102549.30
2022-12-04T11:12:21.677Z,102546.56
2022-12-04T11:13:24.699Z,102545.34
2022-12-04T11:14:27.724Z,102546.86
2022-12-04T11:15:34.756Z,102541.89
2022-12-04T11:16:44.451Z,102540.92
2022-12-04T11:17:47.416Z,102536.80
2022-12-04T11:18:50.949Z,102539.33
2022-12-04T11:20:05.947Z,102538.08
2022-12-04T11:21:26.376Z,102534.36
2022-12-04T11:22:29.329Z,102534.98
2022-12-04T11:23:43.869Z,102535.48
2022-12-04T11:24:53.294Z,102537.15
2022-12-04T11:26:05.551Z,102535.37
2022-12-04T11:27:33.054Z,102538.13
2022-12-04T11:28:42.395Z,102538.37
2022-12-04T11:29:46.793Z,102538.16
2022-12-04T11:30:55.051Z,102537.48
2022-12-04T11:32:05.605Z,102535.25
2022-12-04T11:33:43.237Z,102534.75
2022-12-04T11:34:46.554Z,102532.36
2022-12-04T11:35:56.360Z,102528.80
2022-12-04T11:36:59.775Z,102527.30
2022-12-04T11:38:02.600Z,102524.02
2022-12-04T11:39:20.401Z,102522.50
2022-12-04T11:40:26.107Z,102525.14
2022-12-04T11:41:31.683Z,102526.17
2022-12-04T11:42:34.850Z,102522.50
2022-12-04T11:43:49.845Z,102520.77
2022-12-04T11:44:56.501Z,102523.15
2022-12-04T11:46:02.847Z,102524.26
2022-12-04T11:47:17.260Z,102523.54
2022-12-04T11:48:21.268Z,102521.45
2022-12-04T11:49:26.420Z,102527.33
2022-12-04T11:50:43.471Z,102523.30
2022-12-04T11:52:20.992Z,102522.56
2022-12-04T11:53:46.928Z,102525.32
2022-12-04T11:55:07.506Z,102526.87
2022-12-04T11:56:19.845Z,102528.65
2022-12-04T11:57:45.758Z,102527.46
2022-12-04T11:59:17.644Z,102527.86
2022-12-04T12:00:23.008Z,102526.39
2022-12-04T12:01:44.960Z,102528.88
2022-12-04T12:03:15.353Z,102526.47
2022-12-04T12:04:56.153Z,102526.90
2022-12-04T12:06:24.963Z,102527.05
2022-12-04T12:07:58.957Z,102526.27
2022-12-04T12:09:16.629Z,102528.55
2022-12-04T12:10:29.206Z,102531.38
2022-12-04T12:11:42.463Z,102528.44
2022-12-04T12:12:56.665Z,102529.61
2022-12-04T12:14:02.442Z,102522.41
2022-12-04T12:15:14.593Z,102524.95
2022-12-04T12:16:51.339Z,102521.96
2022-12-04T12:18:26.008Z,102520.91
2022-12-04T12:19:50.789Z,102521.84
2022-12-04T12:21:20.013Z,102518.62
2022-12-04T12:22:44.139Z,102521.58
2022-12-04T12:24:01.443Z,102522.93
2022-12-04T12:25:29.176Z,102523.63
2022-12-04T12:27:03.290Z,102522.67
2022-12-04T12:28:15.804Z,102522.16
2022-12-04T12:29:29.469Z,102522.21
2022-12-04T12:31:04.096Z,102518.80
2022-12-04T12:32:22.469Z,102519.90
2022-12-04T12:33:30.922Z,102519.59
2022-12-04T12:34:46.157Z,102518.48
2022-12-04T12:36:06.095Z,102518.79
2022-12-04T12:37:16.870Z,102520.10
2022-12-04T12:38:25.266Z,102517.71
2022-12-04T12:39:40.157Z,102519.85
2022-12-04T12:40:48.861Z,102516.33
2022-12-04T12:41:59.687Z,102520.48
2022-12-04T12:43:19.804Z,102521.77
2022-12-04T12:44:29.633Z,102522.34
2022-12-04T12:45:51.069Z,102517.83
2022-12-04T12:47:05.396Z,102520.51
2022-12-04T12:48:32.912Z,102517.54
2022-12-04T12:49:48.675Z,102517.33
2022-12-04T12:51:14.768Z,102521.95
2022-12-04T12:52:38.908Z,102518.20
2022-12-04T12:53:47.986Z,102521.37
2022-12-04T12:55:25.868Z,102517.91
2022-12-04T12:56:39.922Z,102517.27
2022-12-04T12:58:04.792Z,102520.25
2022-12-04T12:59:17.010Z,102521.67
2022-12-04T13:00:21.865Z,102518.78
2022-12-04T13:01:32.048Z,102517.24
2022-12-04T13:02:59.558Z,102515.66
2022-12-04T13:04:08.872Z,102514.02
2022-12-04T13:05:14.386Z,102519.39
2022-12-04T13:06:22.069Z,102516.25